createdAt,value
2023-04-09T00:01:04.481Z,101374.56
2023-04-09T00:03:32.731Z,101375.47
2023-04-09T00:06:00.844Z,101368.28
2023-04-09T00:08:28.610Z,101371.66
2023-04-09T00:10:57.925Z,101372.59
2023-04-09T00:13:38.377Z,101369.13
2023-04-09T00:16:08.193Z,101373.69
2023-04-09T00:18:36.385Z,101374.00
2023-04-09T00:21:04.159Z,101376.50
2023-04-09T00:23:31.484Z,101379.09
2023-04-09T00:25:58.774Z,101377.50
2023-04-09T00:28:26.509Z,101379.56
2023-04-09T00:30:53.758Z,101377.59
2023-04-09T00:33:21.549Z,101370.56
2023-04-09T00:35:49.376Z,101375.72
2023-04-09T00:38:17.107Z,101373.88
2023-04-09T00:40:44.928Z,101386.41
2023-04-09T00:43:12.735Z,101382.00
2023-04-09T00:45:40.916Z,101374.59
2023-04-09T00:48:09.261Z,101364.75
2023-04-09T00:50:37.137Z,101359.22
2023-04-09T00:53:06.312Z,101360.91
2023-04-09T00:55:34.137Z,101358.75
2023-04-09T00:58:02.239Z,101359.91
2023-04-09T01:00:29.715Z,101367.16
2023-04-09T01:02:58.198Z,101366.16
2023-04-09T01:05:31.831Z,101372.50
2023-04-09T01:08:00.375Z,101368.47
2023-04-09T01:10:47.398Z,101375.63
2023-04-09T01:13:24.500Z,101372.88
2023-04-09T01:15:54.564Z,101379.00
2023-04-09T01:18:29.261Z,101394.34
2023-04-09T01:21:02.766Z,101393.34
2023-04-09T01:23:37.395Z,101396.28
2023-04-09T01:26:19.348Z,101397.31
2023-04-09T01:28:56.722Z,101402.75
2023-04-09T01:31:29.845Z,101397.31
2023-04-09T01:33:58.444Z,101403.50
2023-04-09T01:36:27.578Z,101404.84
2023-04-09T01:38:56.460Z,101397.22
2023-04-09T01:41:26.129Z,101413.19
2023-04-09T01:43:53.876Z,101407.72
2023-04-09T01:46:22.274Z,101407.56
2023-04-09T01:48:51.086Z,101414.03
2023-04-09T01:51:19.420Z,101409.88
2023-04-09T01:53:47.370Z,101406.25
2023-04-09T01:56:15.344Z,101408.09
2023-04-09T01:58:42.645Z,101408.34
2023-04-09T02:01:13.709Z,101416.81
2023-04-09T02:03:49.182Z,101415.03
2023-04-09T02:06:21.189Z,101420.59
2023-04-09T02:08:51.059Z,101421.78
2023-04-09T02:11:21.248Z,101411.66
2023-04-09T02:13:49.694Z,101409.88
2023-04-09T02:16:17.438Z,101409.25
2023-04-09T02:18:45.758Z,101416.16
2023-04-09T02:21:13.905Z,101410.47
2023-04-09T02:23:42.141Z,101413.53
2023-04-09T02:26:10.313Z,101419.53
2023-04-09T02:28:37.779Z,101415.13
2023-04-09T02:31:05.607Z,101412.31
2023-04-09T02:33:34.163Z,101416.81
2023-04-09T02:36:01.600Z,101415.03
2023-04-09T02:38:28.992Z,101408.19
2023-04-09T02:40:56.789Z,101410.53
2023-04-09T02:43:24.602Z,101407.72
2023-04-09T02:45:52.039Z,101408.69
2023-04-09T02:48:20.602Z,101405.31
2023-04-09T02:50:47.990Z,101405.56
2023-04-09T02:53:15.824Z,101412.00
2023-04-09T02:55:43.659Z,101411.16
2023-04-09T02:58:11.492Z,101405.66
2023-04-09T03:00:38.846Z,101406.09
2023-04-09T03:03:06.447Z,101409.31
2023-04-09T03:05:34.339Z,101406.50
2023-04-09T03:08:02.662Z,101400.50
2023-04-09T03:10:30.588Z,101409.97
2023-04-09T03:12:58.741Z,101405.09
2023-04-09T03:15:26.669Z,101405.09
2023-04-09T03:17:54.473Z,101410.81
2023-04-09T03:20:22.362Z,101414.88
2023-04-09T03:22:50.382Z,101404.72
2023-04-09T03:25:26.854Z,101413.28
2023-04-09T03:27:55.613Z,101405.66
2023-04-09T03:30:32.940Z,101412.06
2023-04-09T03:33:03.164Z,101408.56
2023-04-09T03:35:34.541Z,101409.34
2023-04-09T03:38:02.283Z,101407.06
2023-04-09T03:40:30.266Z,101414.56
2023-04-09T03:42:57.599Z,101414.06
2023-04-09T03:45:25.577Z,101414.28
2023-04-09T03:47:57.820Z,101410.91
2023-04-09T03:50:26.308Z,101410.34
2023-04-09T03:52:56.347Z,101407.97
2023-04-09T03:55:24.206Z,101409.78
2023-04-09T03:57:52.904Z,101415.69
2023-04-09T04:00:26.319Z,101414.41
2023-04-09T04:03:19.922Z,101418.38
2023-04-09T04:06:04.824Z,101419.66
2023-04-09T04:08:44.729Z,101411.28
2023-04-09T04:11:12.582Z,101412.41
2023-04-09T04:13:40.682Z,101414.06
2023-04-09T04:16:11.002Z,101415.97
2023-04-09T04:18:40.691Z,101412.69
2023-04-09T04:21:12.836Z,101417.00
2023-04-09T04:23:41.994Z,101417.84
2023-04-09T04:26:18.600Z,101423.94
2023-04-09T04:28:47.036Z,101419.91
2023-04-09T04:31:25.995Z,101420.00
2023-04-09T04:33:56.552Z,101433.88
2023-04-09T04:36:23.861Z,101432.66
2023-04-09T04:38:53.355Z,101445.56
2023-04-09T04:41:50.354Z,101451.50
2023-04-09T04:44:23.006Z,101447.84
2023-04-09T04:46:56.067Z,101452.44
2023-04-09T04:49:24.198Z,101444.38
2023-04-09T04:51:52.572Z,101442.50
2023-04-09T04:54:20.280Z,101449.63
2023-04-09T04:56:54.432Z,101456.75
2023-04-09T04:59:41.141Z,101451.41
2023-04-09T05:02:11.122Z,101447.84
2023-04-09T05:05:07.775Z,101448.81
2023-04-09T05:07:41.578Z,101448.19
2023-04-09T05:10:09.945Z,101451.00
2023-04-09T05:12:41.494Z,101449.03
2023-04-09T05:15:10.583Z,101455.81
2023-04-09T05:17:38.786Z,101457.63
2023-04-09T05:20:08.544Z,101458.28
2023-04-09T05:22:46.441Z,101461.25
2023-04-09T05:25:16.346Z,101465.72
2023-04-09T05:27:45.373Z,101462.88
2023-04-09T05:30:13.712Z,101466.31
2023-04-09T05:32:42.330Z,101468.22
2023-04-09T05:35:09.724Z,101470.50
2023-04-09T05:37:40.941Z,101470.78
2023-04-09T05:40:08.925Z,101466.88
2023-04-09T05:42:36.967Z,101469.13
2023-04-09T05:45:10.885Z,101474.31
2023-04-09T05:47:45.613Z,101470.41
2023-04-09T05:50:18.881Z,101479.22
2023-04-09T05:52:46.696Z,101484.28
2023-04-09T05:55:15.489Z,101474.16
2023-04-09T05:57:54.436Z,101480.97
2023-04-09T06:00:22.414Z,101483.16
2023-04-09T06:02:51.638Z,101494.50
2023-04-09T06:05:18.974Z,101483.75
2023-04-09T06:07:48.206Z,101483.19
2023-04-09T06:10:15.976Z,101496.84
2023-04-09T06:12:43.283Z,101491.25
2023-04-09T06:15:11.020Z,101496.69
2023-04-09T06:17:38.912Z,101492.97
2023-04-09T06:20:07.006Z,101500.50
2023-04-09T06:22:34.721Z,101502.38
2023-04-09T06:25:02.469Z,101496.38
2023-04-09T06:27:29.714Z,101499.91
2023-04-09T06:29:56.983Z,101502.28
2023-04-09T06:32:24.420Z,101504.44
2023-04-09T06:34:51.710Z,101503.31
2023-04-09T06:37:19.047Z,101505.75
2023-04-09T06:39:58.144Z,101510.47
2023-04-09T06:42:28.767Z,101511.03
2023-04-09T06:45:10.714Z,101518.81
2023-04-09T06:47:38.507Z,101510.25
2023-04-09T06:50:06.627Z,101513.47
2023-04-09T06:52:34.477Z,101510.38
2023-04-09T06:55:02.201Z,101518.00
2023-04-09T06:57:29.619Z,101518.34
2023-04-09T06:59:57.580Z,101518.81
2023-04-09T07:02:25.182Z,101518.34
2023-04-09T07:04:53.078Z,101526.78
2023-04-09T07:07:21.072Z,101526.00
2023-04-09T07:09:49.093Z,101521.41
2023-04-09T07:12:26.145Z,101531.78
2023-04-09T07:14:53.866Z,101528.09
2023-04-09T07:17:21.783Z,101532.50
2023-04-09T07:19:51.608Z,101529.34
2023-04-09T07:22:18.972Z,101530.84
2023-04-09T07:24:47.106Z,101533.28
2023-04-09T07:27:14.931Z,101534.59
2023-04-09T07:29:44.105Z,101531.72
2023-04-09T07:32:11.884Z,101538.88
2023-04-09T07:34:39.586Z,101531.91
2023-04-09T07:37:06.989Z,101534.91
2023-04-09T07:39:35.276Z,101538.75
2023-04-09T07:42:04.508Z,101539.13
2023-04-09T07:44:35.001Z,101543.22
2023-04-09T07:47:02.803Z,101549.78
2023-04-09T07:49:30.349Z,101547.47
2023-04-09T07:51:59.270Z,101550.03
2023-04-09T07:54:28.498Z,101546.56
2023-04-09T07:56:56.684Z,101551.78
2023-04-09T07:59:24.833Z,101553.00
2023-04-09T08:01:52.604Z,101559.03
2023-04-09T08:04:20.231Z,101555.69
2023-04-09T08:06:51.137Z,101556.47
2023-04-09T08:09:20.304Z,101559.28
2023-04-09T08:11:47.864Z,101561.09
2023-04-09T08:14:16.256Z,101558.72
2023-04-09T08:16:44.934Z,101562.97
2023-04-09T08:19:13.452Z,101562.94
2023-04-09T08:21:45.103Z,101562.53
2023-04-09T08:24:13.135Z,101566.69
2023-04-09T08:26:42.215Z,101564.13
2023-04-09T08:29:10.655Z,101574.00
2023-04-09T08:31:38.622Z,101570.63
2023-04-09T08:34:06.616Z,101580.38
2023-04-09T08:36:35.846Z,101573.09
2023-04-09T08:39:04.264Z,101586.56
2023-04-09T08:41:32.084Z,101583.06
2023-04-09T08:44:00.869Z,101588.78
2023-04-09T08:46:28.698Z,101576.06
2023-04-09T08:48:57.152Z,101572.59
2023-04-09T08:51:25.093Z,101576.69
2023-04-09T08:53:55.549Z,101568.50
2023-04-09T08:56:23.940Z,101574.19
2023-04-09T08:58:51.743Z,101573.66
2023-04-09T09:01:22.810Z,101572.47
2023-04-09T09:04:09.009Z,101565.69
2023-04-09T09:06:38.146Z,101577.38
2023-04-09T09:09:09.944Z,101568.28
2023-04-09T09:11:45.891Z,101564.03
2023-04-09T09:14:14.246Z,101566.69
2023-04-09T09:16:43.998Z,101566.41
2023-04-09T09:19:27.046Z,101566.09
2023-04-09T09:21:58.698Z,101567.75
2023-04-09T09:24:26.329Z,101572.34
2023-04-09T09:26:54.562Z,101566.88
2023-04-09T09:29:22.603Z,101569.91
2023-04-09T09:31:52.123Z,101569.84
2023-04-09T09:34:21.313Z,101565.69
2023-04-09T09:36:48.702Z,101561.84
2023-04-09T09:39:17.523Z,101572.22
2023-04-09T09:41:45.847Z,101561.88
2023-04-09T09:44:30.676Z,101560.53
2023-04-09T09:46:59.366Z,101564.34
2023-04-09T09:49:26.756Z,101554.97
2023-04-09T09:51:57.679Z,101562.06
2023-04-09T09:54:25.809Z,101568.50
2023-04-09T09:56:56.098Z,101560.38
2023-04-09T09:59:27.152Z,101563.78
2023-04-09T10:02:01.585Z,101562.91
2023-04-09T10:04:31.623Z,101561.34
2023-04-09T10:07:00.497Z,101560.47
2023-04-09T10:09:28.390Z,101549.56
2023-04-09T10:11:57.791Z,101556.16
2023-04-09T10:14:26.335Z,101557.00
2023-04-09T10:16:53.793Z,101546.13
2023-04-09T10:19:22.324Z,101556.03
2023-04-09T10:22:16.041Z,101558.91
2023-04-09T10:24:44.116Z,101550.47
2023-04-09T10:27:15.055Z,101556.47
2023-04-09T10:29:47.348Z,101550.06
2023-04-09T10:32:21.212Z,101546.31
2023-04-09T10:34:50.590Z,101539.06
2023-04-09T10:37:23.702Z,101546.81
2023-04-09T10:39:52.632Z,101535.03
2023-04-09T10:42:24.873Z,101542.50
2023-04-09T10:45:08.919Z,101536.13
2023-04-09T10:47:38.473Z,101530.28
2023-04-09T10:50:19.800Z,101528.13
2023-04-09T10:52:47.982Z,101522.84
2023-04-09T10:55:31.498Z,101528.19
2023-04-09T10:57:58.933Z,101538.13
2023-04-09T11:00:26.254Z,101523.31
2023-04-09T11:02:57.359Z,101518.50
2023-04-09T11:05:24.873Z,101526.84
2023-04-09T11:07:55.214Z,101517.16
2023-04-09T11:10:23.249Z,101511.66
2023-04-09T11:12:51.170Z,101520.13
2023-04-09T11:15:19.934Z,101519.03
2023-04-09T11:17:49.135Z,101513.25
2023-04-09T11:20:26.047Z,101526.75
2023-04-09T11:22:54.992Z,101507.16
2023-04-09T11:25:26.759Z,101509.13
2023-04-09T11:27:54.880Z,101513.09
2023-04-09T11:30:22.749Z,101506.00
2023-04-09T11:32:51.463Z,101518.59
2023-04-09T11:35:20.621Z,101509.97
2023-04-09T11:37:49.186Z,101507.47
2023-04-09T11:40:21.395Z,101500.38
2023-04-09T11:42:50.018Z,101498.47
2023-04-09T11:45:18.170Z,101514.00
2023-04-09T11:47:47.304Z,101501.06
2023-04-09T11:50:16.475Z,101505.38
2023-04-09T11:52:45.734Z,101510.66
2023-04-09T11:55:22.851Z,101508.66
2023-04-09T11:57:51.792Z,101506.50
2023-04-09T12:00:19.734Z,101500.81
2023-04-09T12:02:48.167Z,101501.16
2023-04-09T12:05:22.929Z,101491.81
2023-04-09T12:07:56.306Z,101501.41
2023-04-09T12:10:27.335Z,101483.31
2023-04-09T12:12:55.476Z,101480.19
2023-04-09T12:15:27.205Z,101482.72
2023-04-09T12:17:56.196Z,101472.13
2023-04-09T12:20:30.498Z,101468.75
2023-04-09T12:23:00.336Z,101470.56
2023-04-09T12:25:28.827Z,101470.50
2023-04-09T12:27:56.660Z,101463.09
2023-04-09T12:30:24.926Z,101460.38
2023-04-09T12:32:52.527Z,101466.63
2023-04-09T12:35:20.549Z,101453.91
2023-04-09T12:37:47.897Z,101456.03
2023-04-09T12:40:15.509Z,101460.25
2023-04-09T12:42:44.291Z,101461.34
2023-04-09T12:45:13.335Z,101453.19
2023-04-09T12:47:41.510Z,101456.09
2023-04-09T12:50:09.819Z,101455.41
2023-04-09T12:52:37.270Z,101449.28
2023-04-09T12:55:05.918Z,101451.00
2023-04-09T12:57:33.576Z,101450.50
2023-04-09T13:00:01.489Z,101451.22
2023-04-09T13:02:29.029Z,101455.84
2023-04-09T13:04:57.668Z,101451.50
2023-04-09T13:07:26.592Z,101456.50
2023-04-09T13:09:53.863Z,101456.00
2023-04-09T13:12:21.596Z,101452.28
2023-04-09T13:14:49.650Z,101452.28
2023-04-09T13:17:17.668Z,101455.53
2023-04-09T13:19:46.188Z,101446.66
2023-04-09T13:22:13.772Z,101447.34
2023-04-09T13:24:43.265Z,101439.59
2023-04-09T13:27:11.399Z,101431.28
2023-04-09T13:29:39.364Z,101434.50
2023-04-09T13:32:11.164Z,101424.03
2023-04-09T13:34:39.841Z,101425.13
2023-04-09T13:37:07.535Z,101421.28
2023-04-09T13:39:34.850Z,101426.59
2023-04-09T13:42:07.153Z,101431.75
2023-04-09T13:44:42.506Z,101412.44
2023-04-09T13:47:12.940Z,101424.75
2023-04-09T13:49:40.831Z,101406.47
2023-04-09T13:52:08.268Z,101406.34
2023-04-09T13:54:36.167Z,101401.22
2023-04-09T13:57:04.004Z,101399.03
2023-04-09T13:59:32.220Z,101395.34
2023-04-09T14:01:59.649Z,101403.03
2023-04-09T14:04:27.743Z,101391.97
2023-04-09T14:06:55.140Z,101393.09
2023-04-09T14:09:22.483Z,101398.38
2023-04-09T14:11:50.986Z,101396.84
2023-04-09T14:14:19.978Z,101396.22
2023-04-09T14:16:48.442Z,101396.00
2023-04-09T14:19:17.103Z,101389.31
2023-04-09T14:21:44.554Z,101392.66
2023-04-09T14:24:11.874Z,101395.19
2023-04-09T14:26:39.230Z,101385.94
2023-04-09T14:29:06.827Z,101384.09
2023-04-09T14:31:35.392Z,101382.09
2023-04-09T14:34:03.763Z,101387.44
2023-04-09T14:36:32.279Z,101383.47
2023-04-09T14:39:00.217Z,101380.09
2023-04-09T14:41:27.949Z,101386.50
2023-04-09T14:43:55.348Z,101395.50
2023-04-09T14:46:23.133Z,101397.38
2023-04-09T14:48:50.763Z,101399.84
2023-04-09T14:51:18.627Z,101395.47
2023-04-09T14:53:45.906Z,101397.19
2023-04-09T14:56:13.293Z,101400.22
2023-04-09T14:58:41.069Z,101404.31
2023-04-09T15:01:09.087Z,101399.75
2023-04-09T15:03:36.783Z,101397.13
2023-04-09T15:06:05.307Z,101406.50
2023-04-09T15:08:32.691Z,101392.78
2023-04-09T15:11:00.778Z,101394.97
2023-04-09T15:13:28.606Z,101392.66
2023-04-09T15:15:56.782Z,101400.41
2023-04-09T15:18:24.278Z,101394.44
2023-04-09T15:20:52.004Z,101403.22
2023-04-09T15:23:19.863Z,101400.06
2023-04-09T15:25:47.320Z,101413.19
2023-04-09T15:28:15.200Z,101407.13
2023-04-09T15:30:42.706Z,101402.34
2023-04-09T15:33:10.108Z,101408.06
2023-04-09T15:35:37.791Z,101408.53
2023-04-09T15:38:05.689Z,101421.03
2023-04-09T15:40:33.538Z,101416.44
2023-04-09T15:43:01.107Z,101415.16
2023-04-09T15:45:28.866Z,101426.41
2023-04-09T15:47:56.733Z,101426.22
2023-04-09T15:50:24.641Z,101425.03
2023-04-09T15:52:51.974Z,101418.22
2023-04-09T15:55:19.557Z,101422.47
2023-04-09T15:57:47.392Z,101419.72
2023-04-09T16:00:16.006Z,101431.53
2023-04-09T16:02:43.804Z,101422.63
2023-04-09T16:05:11.245Z,101428.16
2023-04-09T16:07:39.786Z,101432.50
2023-04-09T16:10:08.000Z,101425.84
2023-04-09T16:12:35.847Z,101435.72
2023-04-09T16:15:03.696Z,101437.91
2023-04-09T16:17:34.545Z,101453.53
2023-04-09T16:20:08.574Z,101447.41
2023-04-09T16:22:36.222Z,101454.31
2023-04-09T16:25:04.265Z,101458.81
2023-04-09T16:27:32.086Z,101459.66
2023-04-09T16:29:59.466Z,101458.88
2023-04-09T16:32:27.494Z,101458.69
2023-04-09T16:34:56.125Z,101456.53
2023-04-09T16:37:23.846Z,101462.41
2023-04-09T16:39:52.011Z,101460.91
2023-04-09T16:42:19.395Z,101460.13
2023-04-09T16:44:47.457Z,101454.97
2023-04-09T16:47:15.026Z,101459.47
2023-04-09T16:49:43.188Z,101453.28
2023-04-09T16:52:10.752Z,101467.09
2023-04-09T16:54:38.066Z,101471.69
2023-04-09T16:57:06.172Z,101463.34
2023-04-09T16:59:34.519Z,101461.00
2023-04-09T17:02:02.607Z,101463.75
2023-04-09T17:04:30.246Z,101467.88
2023-04-09T17:06:57.641Z,101465.53
2023-04-09T17:09:25.193Z,101471.94
2023-04-09T17:11:53.397Z,101469.78
2023-04-09T17:14:21.612Z,101469.22
2023-04-09T17:16:52.817Z,101469.50
2023-04-09T17:19:20.118Z,101472.16
2023-04-09T17:21:48.040Z,101470.81
2023-04-09T17:24:15.413Z,101475.81
2023-04-09T17:26:43.263Z,101476.94
2023-04-09T17:29:11.066Z,101482.94
2023-04-09T17:31:38.789Z,101477.25
2023-04-09T17:34:06.328Z,101495.22
2023-04-09T17:36:33.673Z,101499.75
2023-04-09T17:39:01.797Z,101494.88
2023-04-09T17:41:29.617Z,101497.13
2023-04-09T17:43:58.228Z,101500.59
2023-04-09T17:46:26.163Z,101503.56
2023-04-09T17:48:54.266Z,101502.78
2023-04-09T17:51:21.772Z,101502.50
2023-04-09T17:53:49.516Z,101504.19
2023-04-09T17:56:18.285Z,101512.69
2023-04-09T17:58:46.983Z,101516.31
2023-04-09T18:01:14.995Z,101506.91
2023-04-09T18:03:43.728Z,101514.41
2023-04-09T18:06:11.950Z,101512.50
2023-04-09T18:08:41.717Z,101513.78
2023-04-09T18:11:13.226Z,101525.00
2023-04-09T18:13:42.867Z,101529.50
2023-04-09T18:16:11.297Z,101535.94
2023-04-09T18:18:39.372Z,101540.06
2023-04-09T18:21:07.719Z,101539.88
2023-04-09T18:23:35.068Z,101556.16
2023-04-09T18:26:02.461Z,101557.84
2023-04-09T18:28:30.441Z,101550.75
2023-04-09T18:30:58.898Z,101560.47
2023-04-09T18:33:27.119Z,101555.00
2023-04-09T18:35:54.856Z,101571.00
2023-04-09T18:38:23.236Z,101570.00
2023-04-09T18:40:50.692Z,101578.50
2023-04-09T18:43:18.429Z,101580.22
2023-04-09T18:45:46.278Z,101585.84
2023-04-09T18:48:13.749Z,101582.78
2023-04-09T18:50:41.677Z,101583.56
2023-04-09T18:53:09.892Z,101584.44
2023-04-09T18:55:38.401Z,101598.84
2023-04-09T18:58:12.854Z,101595.16
2023-04-09T19:00:40.524Z,101596.72
2023-04-09T19:03:09.076Z,101597.13
2023-04-09T19:05:36.930Z,101604.09
2023-04-09T19:08:05.656Z,101605.28
2023-04-09T19:10:33.623Z,101606.63
2023-04-09T19:13:01.023Z,101602.22
2023-04-09T19:15:29.534Z,101611.16
2023-04-09T19:17:57.490Z,101604.59
2023-04-09T19:20:25.501Z,101615.25
2023-04-09T19:22:57.424Z,101629.03
2023-04-09T19:25:25.142Z,101622.50
2023-04-09T19:27:54.236Z,101627.34
2023-04-09T19:30:21.766Z,101636.41
2023-04-09T19:32:49.584Z,101638.56
2023-04-09T19:35:17.681Z,101640.69
2023-04-09T19:37:46.017Z,101641.44
2023-04-09T19:40:16.925Z,101645.88
2023-04-09T19:42:44.603Z,101652.47
2023-04-09T19:45:12.542Z,101657.06
2023-04-09T19:47:40.978Z,101655.72
2023-04-09T19:50:08.895Z,101656.84
2023-04-09T19:52:37.786Z,101657.69
2023-04-09T19:55:05.937Z,101653.78
2023-04-09T19:57:34.857Z,101656.50
2023-04-09T20:00:03.388Z,101660.03
2023-04-09T20:02:41.513Z,101663.81
2023-04-09T20:05:10.498Z,101658.75
2023-04-09T20:07:38.576Z,101659.38
2023-04-09T20:10:06.360Z,101664.38
2023-04-09T20:12:34.396Z,101667.38
2023-04-09T20:15:02.094Z,101667.59
2023-04-09T20:17:30.371Z,101664.63
2023-04-09T20:19:58.738Z,101672.47
2023-04-09T20:22:27.203Z,101672.06
2023-04-09T20:24:55.492Z,101666.00
2023-04-09T20:27:23.463Z,101673.34
2023-04-09T20:29:50.942Z,101673.47
2023-04-09T20:32:19.421Z,101669.88
2023-04-09T20:34:47.240Z,101676.19
2023-04-09T20:37:15.025Z,101676.47
2023-04-09T20:39:43.469Z,101678.47
2023-04-09T20:42:11.539Z,101686.81
2023-04-09T20:44:39.550Z,101685.97
2023-04-09T20:47:07.427Z,101679.00
2023-04-09T20:49:35.333Z,101682.47
2023-04-09T20:52:02.620Z,101687.09
2023-04-09T20:54:30.900Z,101687.34
2023-04-09T20:56:58.649Z,101689.84
2023-04-09T20:59:27.625Z,101694.34
2023-04-09T21:01:56.069Z,101689.66
2023-04-09T21:04:24.459Z,101690.41
2023-04-09T21:06:52.476Z,101688.50
2023-04-09T21:09:20.348Z,101691.44
2023-04-09T21:11:48.044Z,101704.44
2023-04-09T21:14:15.845Z,101707.94
2023-04-09T21:16:43.257Z,101709.34
2023-04-09T21:19:11.127Z,101706.16
2023-04-09T21:21:38.454Z,101706.16
2023-04-09T21:24:06.684Z,101711.72
2023-04-09T21:26:49.288Z,101715.66
2023-04-09T21:29:19.705Z,101709.94
2023-04-09T21:31:47.984Z,101719.16
2023-04-09T21:34:16.129Z,101715.66
2023-04-09T21:36:45.500Z,101719.94
2023-04-09T21:39:13.429Z,101713.81
2023-04-09T21:41:40.701Z,101722.50
2023-04-09T21:44:08.784Z,101724.50
2023-04-09T21:46:40.879Z,101727.44
2023-04-09T21:49:08.778Z,101730.38
2023-04-09T21:51:36.129Z,101727.84
2023-04-09T21:54:09.777Z,101729.63
2023-04-09T21:56:38.087Z,101723.41
2023-04-09T21:59:06.257Z,101731.66
2023-04-09T22:01:35.131Z,101731.09
2023-04-09T22:04:02.863Z,101724.41
2023-04-09T22:06:31.183Z,101728.78
2023-04-09T22:08:59.091Z,101731.66
2023-04-09T22:11:30.707Z,101736.03
2023-04-09T22:13:58.801Z,101733.00
2023-04-09T22:16:26.377Z,101730.31
2023-04-09T22:18:54.628Z,101735.41
2023-04-09T22:21:23.220Z,101727.25
2023-04-09T22:23:51.107Z,101737.06
2023-04-09T22:26:19.000Z,101735.75
2023-04-09T22:28:46.426Z,101737.34
2023-04-09T22:31:14.237Z,101739.28
2023-04-09T22:33:41.963Z,101739.16
2023-04-09T22:36:10.383Z,101738.91
2023-04-09T22:38:38.415Z,101745.13
2023-04-09T22:41:06.419Z,101748.25
2023-04-09T22:43:33.824Z,101748.88
2023-04-09T22:46:02.401Z,101747.50
2023-04-09T22:48:30.948Z,101751.06
2023-04-09T22:50:58.728Z,101753.44
2023-04-09T22:53:26.748Z,101752.31
2023-04-09T22:55:58.071Z,101746.31
2023-04-09T22:58:26.243Z,101749.50
2023-04-09T23:00:53.639Z,101746.09
2023-04-09T23:03:21.107Z,101747.81
2023-04-09T23:05:48.479Z,101746.50
2023-04-09T23:08:16.184Z,101747.41
2023-04-09T23:10:43.560Z,101747.00
2023-04-09T23:13:13.860Z,101750.41
2023-04-09T23:15:41.696Z,101756.31
2023-04-09T23:18:09.827Z,101758.34
2023-04-09T23:20:37.358Z,101764.34
2023-04-09T23:23:05.438Z,101766.59
2023-04-09T23:25:32.802Z,101757.38
2023-04-09T23:28:00.061Z,101758.50
2023-04-09T23:30:27.894Z,101764.28
2023-04-09T23:32:57.533Z,101761.03
2023-04-09T23:35:25.603Z,101765.53
2023-04-09T23:37:53.885Z,101759.25
2023-04-09T23:40:21.650Z,101761.84
2023-04-09T23:42:50.325Z,101756.00
2023-04-09T23:45:17.800Z,101761.25
2023-04-09T23:47:46.064Z,101756.16
2023-04-09T23:50:13.486Z,101755.91
2023-04-09T23:52:46.634Z,101759.03
2023-04-09T23:55:14.187Z,101755.31
2023-04-09T23:57:43.610Z,101755.75
